Time;durP1;ratioP1;P1;durP2;ratioP2;P2;SDS_P1;SDS_P2;PMS_P1;PMS_P2;Temp;Humidity;BMP_temperature;BMP_pressure;BME280_temperature;BME280_humidity;BME280_pressure;Samples;Min_cycle;Max_cycle;Signal;HPM_P1;HPM_P2
2023/06/06 00:00:21;;;;;;;8.02;5.55;;;10.10;99.90;;;;;;4980869;28;88711;-33
2023/06/06 00:02:48;;;;;;;12.98;6.45;;;10.10;99.90;;;;;;4962110;28;90294;-30
2023/06/06 00:05:15;;;;;;;7.10;4.60;;;10.00;99.90;;;;;;4979902;28;89604;-33
2023/06/06 00:07:43;;;;;;;11.85;7.05;;;10.00;99.90;;;;;;4981393;28;89708;-31
2023/06/06 00:10:10;;;;;;;9.15;6.47;;;9.90;99.90;;;;;;4979997;28;89781;-31
2023/06/06 00:12:36;;;;;;;9.13;6.18;;;9.90;99.90;;;;;;4979598;28;90516;-30
2023/06/06 00:15:03;;;;;;;9.00;5.88;;;9.90;99.90;;;;;;4979987;28;89374;-32
2023/06/06 00:17:29;;;;;;;13.38;6.03;;;9.90;99.90;;;;;;4980206;28;89862;-33
2023/06/06 00:19:56;;;;;;;10.30;5.30;;;9.80;99.90;;;;;;4980443;28;89055;-30
2023/06/06 00:22:23;;;;;;;7.97;5.10;;;9.80;99.90;;;;;;4979831;28;90555;-34
2023/06/06 00:24:55;;;;;;;9.63;6.07;;;9.80;99.90;;;;;;4979773;28;89267;-31
2023/06/06 00:27:21;;;;;;;9.23;5.95;;;9.80;99.90;;;;;;4980519;28;88793;-32
2023/06/06 00:29:47;;;;;;;8.98;5.15;;;9.80;99.90;;;;;;4979530;28;88077;-30
2023/06/06 00:32:12;;;;;;;8.00;6.60;;;9.90;99.90;;;;;;4979680;28;90013;-36
2023/06/06 00:34:38;;;;;;;10.23;6.30;;;9.90;99.90;;;;;;4981758;28;89824;-33
2023/06/06 00:37:04;;;;;;;11.35;5.88;;;9.90;99.90;;;;;;4983669;28;89423;-31
2023/06/06 00:39:29;;;;;;;10.38;5.63;;;9.90;99.90;;;;;;4983317;28;89240;-32
2023/06/06 00:41:55;;;;;;;11.55;5.97;;;9.80;99.90;;;;;;4983568;28;90412;-32
2023/06/06 00:44:21;;;;;;;10.43;6.65;;;9.80;99.90;;;;;;4983192;28;89626;-37
2023/06/06 00:46:47;;;;;;;8.23;7.07;;;9.80;99.90;;;;;;4983540;28;89203;-32
2023/06/06 00:49:15;;;;;;;8.93;6.68;;;9.70;99.90;;;;;;4982778;28;88383;-30
2023/06/06 00:51:43;;;;;;;8.07;5.28;;;9.70;99.90;;;;;;4983144;28;89821;-36
2023/06/06 00:54:12;;;;;;;9.20;4.95;;;9.80;99.90;;;;;;4981701;28;89429;-35
2023/06/06 00:56:39;;;;;;;8.85;5.78;;;9.70;99.90;;;;;;4982228;28;89237;-33
2023/06/06 00:59:06;;;;;;;9.55;5.10;;;9.70;99.90;;;;;;4981784;28;88436;-33
2023/06/06 01:01:34;;;;;;;6.20;5.05;;;9.70;99.90;;;;;;4981282;28;90323;-31
2023/06/06 01:04:02;;;;;;;7.45;5.82;;;9.70;99.90;;;;;;4981055;28;90360;-35
2023/06/06 01:06:33;;;;;;;10.77;6.13;;;9.70;99.90;;;;;;4981624;28;91652;-31
2023/06/06 01:09:01;;;;;;;8.35;5.53;;;9.80;99.90;;;;;;4982247;28;89819;-31
2023/06/06 01:11:51;;;;;;;10.00;6.30;;;9.70;99.90;;;;;;4981082;28;89698;-34
2023/06/06 01:14:25;;;;;;;12.07;6.93;;;9.70;99.90;;;;;;4981576;28;89678;-30
2023/06/06 01:16:52;;;;;;;10.27;5.95;;;9.70;99.90;;;;;;4969133;28;89781;-33
2023/06/06 01:19:29;;;;;;;12.13;5.80;;;9.70;99.90;;;;;;4980973;28;89942;-31
2023/06/06 01:21:56;;;;;;;12.95;7.55;;;9.70;99.90;;;;;;4981678;28;90222;-34
2023/06/06 01:24:24;;;;;;;15.68;5.80;;;9.70;99.90;;;;;;4980897;28;90123;-31
2023/06/06 01:26:50;;;;;;;10.00;5.85;;;9.80;99.90;;;;;;4981855;28;89513;-33
2023/06/06 01:29:15;;;;;;;7.35;4.85;;;9.80;99.90;;;;;;4980337;28;88425;-31
2023/06/06 01:31:43;;;;;;;10.45;6.60;;;9.70;99.90;;;;;;4981991;28;90154;-32
2023/06/06 01:34:32;;;;;;;10.75;7.00;;;9.70;99.90;;;;;;4980707;28;89346;-32
2023/06/06 01:37:35;;;;;;;8.50;5.70;;;9.70;99.90;;;;;;4981741;28;90114;-31
2023/06/06 01:40:06;;;;;;;11.13;7.55;;;9.60;99.90;;;;;;4951740;28;89861;-31
2023/06/06 01:42:39;;;;;;;13.40;7.38;;;9.60;99.90;;;;;;4980771;28;90301;-33
2023/06/06 01:45:07;;;;;;;10.82;6.03;;;9.60;99.90;;;;;;4981280;28;89194;-32
2023/06/06 01:47:33;;;;;;;;;;;9.60;99.90;;;;;;4980765;28;90159;-34
2023/06/06 01:49:59;;;;;;;11.43;7.63;;;9.60;99.90;;;;;;4982877;28;88953;-33
2023/06/06 01:52:28;;;;;;;13.32;7.25;;;9.50;99.90;;;;;;4967847;28;89832;-33
2023/06/06 01:54:55;;;;;;;9.93;7.40;;;9.50;99.90;;;;;;4980554;28;89388;-35
2023/06/06 01:57:20;;;;;;;16.27;9.15;;;9.40;99.90;;;;;;4980495;28;90828;-31
2023/06/06 01:59:46;;;;;;;17.20;10.35;;;9.40;99.90;;;;;;4981228;28;89311;-37
2023/06/06 02:02:12;;;;;;;16.45;9.85;;;9.30;99.90;;;;;;4980144;28;90208;-33
2023/06/06 02:04:37;;;;;;;12.45;8.57;;;9.30;99.90;;;;;;4980702;28;89555;-36
2023/06/06 02:07:03;;;;;;;14.98;10.00;;;9.20;99.90;;;;;;4981181;28;89649;-31
2023/06/06 02:09:28;;;;;;;20.65;10.68;;;9.20;99.90;;;;;;4980366;28;89191;-30
2023/06/06 02:11:54;;;;;;;20.65;12.23;;;9.20;99.90;;;;;;4980345;28;90262;-33
2023/06/06 02:14:20;;;;;;;16.15;12.18;;;9.20;99.90;;;;;;4980048;28;89794;-35
2023/06/06 02:16:48;;;;;;;16.58;10.52;;;9.20;99.90;;;;;;4979840;28;89559;-35
2023/06/06 02:19:14;;;;;;;14.40;10.10;;;9.20;99.90;;;;;;4979436;28;90209;-36
2023/06/06 02:21:39;;;;;;;20.17;11.85;;;9.20;99.90;;;;;;4980093;28;90331;-36
2023/06/06 02:24:05;;;;;;;19.75;12.95;;;9.30;99.90;;;;;;4979596;28;90383;-33
2023/06/06 02:26:31;;;;;;;21.00;13.75;;;9.20;99.90;;;;;;4979951;28;89260;-30
2023/06/06 02:28:57;;;;;;;20.92;13.70;;;9.20;99.90;;;;;;4979350;28;88227;-30
2023/06/06 02:31:26;;;;;;;17.63;12.70;;;9.20;99.90;;;;;;4979729;28;90255;-33
2023/06/06 02:33:51;;;;;;;16.83;12.15;;;9.10;99.90;;;;;;4980631;28;91400;-32
2023/06/06 02:36:18;;;;;;;26.38;14.15;;;9.10;99.90;;;;;;4979398;28;89157;-35
2023/06/06 02:38:44;;;;;;;23.83;13.80;;;9.10;99.90;;;;;;4980053;28;88121;-35
2023/06/06 02:41:09;;;;;;;18.98;14.25;;;9.10;99.90;;;;;;4979569;28;90022;-35
2023/06/06 02:43:42;;;;;;;17.42;12.48;;;9.10;99.90;;;;;;4978460;28;90085;-35
2023/06/06 02:46:07;;;;;;;17.13;11.27;;;9.10;99.90;;;;;;4967595;28;90476;-35
2023/06/06 02:48:33;;;;;;;17.45;10.52;;;9.10;99.90;;;;;;4979850;28;88934;-34
2023/06/06 02:50:59;;;;;;;19.67;12.32;;;9.20;99.90;;;;;;4979034;28;90763;-31
2023/06/06 02:53:27;;;;;;;23.27;14.07;;;9.20;99.90;;;;;;4978944;28;90136;-31
2023/06/06 02:55:52;;;;;;;15.70;9.95;;;9.20;99.90;;;;;;4979820;28;89537;-34
2023/06/06 02:58:29;;;;;;;13.90;10.50;;;9.20;99.90;;;;;;4979696;28;89503;-33
2023/06/06 03:00:58;;;;;;;19.13;10.27;;;9.20;99.90;;;;;;4979489;28;90667;-31
2023/06/06 03:03:24;;;;;;;20.75;11.13;;;9.10;99.90;;;;;;4978123;28;89882;-36
2023/06/06 03:05:51;;;;;;;15.50;10.23;;;9.10;99.90;;;;;;4979636;28;90261;-32
2023/06/06 03:08:18;;;;;;;15.15;9.45;;;9.00;99.90;;;;;;4978948;28;89322;-31
2023/06/06 03:10:46;;;;;;;17.38;10.52;;;9.10;99.90;;;;;;4980000;28;90423;-32
2023/06/06 03:13:12;;;;;;;13.20;8.80;;;9.10;99.90;;;;;;4978772;28;89216;-36
2023/06/06 03:15:40;;;;;;;12.02;7.85;;;9.10;99.90;;;;;;4980154;28;88927;-36
2023/06/06 03:18:09;;;;;;;17.70;8.23;;;9.10;99.90;;;;;;4979478;28;88958;-34
2023/06/06 03:20:41;;;;;;;14.43;8.40;;;9.10;99.90;;;;;;4979982;28;90885;-33
2023/06/06 03:23:07;;;;;;;12.15;8.27;;;9.10;99.90;;;;;;4979237;28;89539;-33
2023/06/06 03:25:33;;;;;;;15.52;8.73;;;9.00;99.90;;;;;;4979214;28;89758;-36
2023/06/06 03:28:00;;;;;;;10.30;6.78;;;9.10;99.90;;;;;;4979358;28;89546;-32
2023/06/06 03:30:26;;;;;;;10.05;6.72;;;9.10;99.90;;;;;;4979319;28;90301;-35
2023/06/06 03:32:52;;;;;;;13.63;8.25;;;9.10;99.90;;;;;;4978802;28;91143;-35
2023/06/06 03:35:18;;;;;;;14.57;9.52;;;9.10;99.90;;;;;;4979367;28;90504;-31
2023/06/06 03:37:44;;;;;;;11.50;6.35;;;9.20;99.90;;;;;;4979588;28;89247;-33
2023/06/06 03:40:11;;;;;;;12.73;7.47;;;9.20;99.90;;;;;;4979071;28;89990;-34
2023/06/06 03:42:37;;;;;;;10.48;7.75;;;9.20;99.90;;;;;;4978040;28;90936;-32
2023/06/06 03:45:03;;;;;;;34.88;8.93;;;9.30;99.90;;;;;;4979607;28;89045;-32
2023/06/06 03:47:29;;;;;;;13.43;7.47;;;9.20;99.90;;;;;;4978548;28;88858;-31
2023/06/06 03:49:55;;;;;;;17.63;8.75;;;9.30;99.90;;;;;;4979937;28;90208;-32
2023/06/06 03:52:21;;;;;;;12.77;8.57;;;9.30;99.90;;;;;;4978676;28;89824;-33
2023/06/06 03:54:46;;;;;;;15.45;8.15;;;9.30;99.90;;;;;;4979699;28;89659;-32
2023/06/06 03:57:12;;;;;;;31.05;10.27;;;9.40;99.90;;;;;;4978968;28;90987;-31
2023/06/06 03:59:39;;;;;;;12.43;8.75;;;9.40;99.90;;;;;;4977319;28;90378;-37
2023/06/06 04:02:05;;;;;;;13.35;8.60;;;9.50;99.90;;;;;;4977821;28;89763;-33
2023/06/06 04:04:31;;;;;;;30.55;11.50;;;9.50;99.90;;;;;;4978523;28;89181;-33
2023/06/06 04:06:58;;;;;;;18.08;8.95;;;9.60;99.90;;;;;;4978436;28;88305;-34
2023/06/06 04:09:23;;;;;;;25.58;10.48;;;9.60;99.90;;;;;;4978255;28;90157;-33
2023/06/06 04:11:49;;;;;;;21.17;9.40;;;9.70;99.90;;;;;;4978593;28;89182;-34
2023/06/06 04:14:15;;;;;;;13.50;9.00;;;9.70;99.90;;;;;;4979180;28;88385;-31
2023/06/06 04:16:40;;;;;;;12.77;8.93;;;9.80;99.90;;;;;;4978092;28;88518;-33
2023/06/06 04:19:07;;;;;;;15.15;8.98;;;9.80;99.90;;;;;;4977941;28;90263;-33
2023/06/06 04:21:33;;;;;;;13.02;7.85;;;9.80;99.90;;;;;;4978727;28;90674;-31
2023/06/06 04:23:59;;;;;;;13.57;9.60;;;10.00;99.90;;;;;;4978411;28;90796;-32
2023/06/06 04:26:32;;;;;;;11.50;9.68;;;10.00;99.90;;;;;;5032122;22;90094;-32
2023/06/06 04:28:59;;;;;;;24.27;11.02;;;10.10;99.90;;;;;;4998929;28;90113;-30
2023/06/06 04:31:29;;;;;;;18.45;10.10;;;10.20;99.90;;;;;;4985768;28;89683;-31
2023/06/06 04:33:55;;;;;;;16.42;10.18;;;10.30;99.90;;;;;;4998687;28;90202;-34
2023/06/06 04:36:22;;;;;;;16.35;10.20;;;10.50;99.90;;;;;;4999665;28;89299;-32
2023/06/06 04:38:49;;;;;;;14.20;9.45;;;10.60;99.90;;;;;;5000499;28;89877;-31
2023/06/06 04:41:20;;;;;;;15.63;10.02;;;10.70;99.90;;;;;;4999224;28;89887;-30
2023/06/06 04:43:49;;;;;;;19.80;10.55;;;10.90;99.90;;;;;;4988862;28;89125;-37
2023/06/06 04:46:21;;;;;;;15.80;9.25;;;11.00;99.90;;;;;;4999035;28;89335;-32
2023/06/06 04:48:53;;;;;;;10.52;9.43;;;11.20;99.90;;;;;;5001918;28;89680;-32
2023/06/06 04:51:29;;;;;;;14.45;8.35;;;11.30;99.90;;;;;;5000034;28;89728;-34
2023/06/06 04:54:07;;;;;;;12.90;9.23;;;11.40;99.90;;;;;;5000743;28;90280;-33
2023/06/06 04:56:34;;;;;;;17.15;9.00;;;11.50;99.90;;;;;;5001229;28;89140;-31
2023/06/06 04:59:06;;;;;;;14.98;8.93;;;11.60;99.90;;;;;;4999709;28;89782;-34
2023/06/06 05:01:34;;;;;;;10.73;7.32;;;11.70;99.90;;;;;;5000822;28;89794;-32
2023/06/06 05:04:00;;;;;;;12.85;7.93;;;11.80;99.90;;;;;;4999659;28;89475;-33
2023/06/06 05:06:27;;;;;;;10.43;8.30;;;11.90;99.90;;;;;;5011421;28;88947;-37
2023/06/06 05:08:54;;;;;;;14.32;7.47;;;12.10;99.90;;;;;;5007370;27;88870;-35
2023/06/06 05:11:20;;;;;;;11.50;7.43;;;12.20;99.90;;;;;;5004462;28;89779;-32
2023/06/06 05:13:45;;;;;;;9.27;6.15;;;12.30;99.90;;;;;;5008228;28;90701;-32
2023/06/06 05:16:11;;;;;;;15.65;6.53;;;12.40;99.90;;;;;;5004652;28;87747;-35
2023/06/06 05:18:37;;;;;;;8.90;6.45;;;12.50;99.90;;;;;;5008105;28;89893;-32
2023/06/06 05:21:03;;;;;;;12.45;5.90;;;12.60;99.90;;;;;;5005424;27;89667;-30
2023/06/06 05:23:30;;;;;;;16.15;7.93;;;12.70;99.90;;;;;;5010146;28;89205;-31
2023/06/06 05:25:57;;;;;;;11.07;7.40;;;12.80;99.90;;;;;;5008400;28;89037;-35
2023/06/06 05:28:27;;;;;;;10.30;7.10;;;12.80;99.90;;;;;;5009314;27;90444;-33
2023/06/06 05:30:52;;;;;;;7.47;5.47;;;12.90;99.90;;;;;;5008531;28;90834;-32
2023/06/06 05:33:22;;;;;;;20.17;7.18;;;13.10;99.90;;;;;;5008489;28;89507;-36
2023/06/06 05:35:47;;;;;;;7.88;5.57;;;13.30;99.90;;;;;;5007822;28;89830;-33
2023/06/06 05:38:15;;;;;;;10.43;5.78;;;13.40;99.90;;;;;;5002241;28;90340;-32
2023/06/06 05:40:40;;;;;;;10.17;5.20;;;13.50;99.90;;;;;;5008074;28;90100;-32
2023/06/06 05:43:06;;;;;;;9.35;6.43;;;13.50;99.90;;;;;;5007048;28;89771;-37
2023/06/06 05:45:32;;;;;;;14.20;8.57;;;13.50;99.90;;;;;;5008333;28;89586;-30
2023/06/06 05:47:57;;;;;;;8.73;5.35;;;13.60;99.90;;;;;;5007457;28;90089;-31
2023/06/06 05:50:23;;;;;;;10.65;5.28;;;13.70;99.90;;;;;;5005435;28;90487;-32
2023/06/06 05:52:48;;;;;;;11.75;6.85;;;13.70;99.90;;;;;;5007004;28;90207;-31
2023/06/06 05:55:33;;;;;;;10.15;6.10;;;13.60;99.90;;;;;;5010079;28;88950;-31
2023/06/06 05:58:00;;;;;;;15.30;5.35;;;13.90;99.90;;;;;;5009109;28;89962;-33
2023/06/06 06:00:28;;;;;;;10.48;4.78;;;13.90;99.90;;;;;;5012025;28;91126;-33
2023/06/06 06:02:58;;;;;;;11.45;5.40;;;14.00;99.90;;;;;;5008575;28;90835;-36
2023/06/06 06:05:28;;;;;;;9.25;5.13;;;14.10;99.90;;;;;;5001230;28;89918;-30
2023/06/06 06:08:00;;;;;;;8.00;5.13;;;14.20;99.90;;;;;;5000636;28;90134;-36
2023/06/06 06:10:33;;;;;;;9.45;5.22;;;14.30;99.90;;;;;;4992384;28;91555;-34
2023/06/06 06:13:00;;;;;;;17.02;7.28;;;14.50;99.90;;;;;;5001751;28;89422;-34
2023/06/06 06:15:26;;;;;;;11.15;5.72;;;14.40;99.90;;;;;;5000388;27;89194;-33
2023/06/06 06:17:51;;;;;;;11.55;6.70;;;14.30;99.90;;;;;;5001848;28;90001;-36
2023/06/06 06:20:19;;;;;;;10.23;5.05;;;14.50;99.90;;;;;;4988692;28;89789;-31
2023/06/06 06:22:46;;;;;;;8.95;5.35;;;14.70;99.90;;;;;;5001950;28;91479;-32
2023/06/06 06:25:16;;;;;;;16.05;6.05;;;14.80;99.90;;;;;;4998800;28;89178;-33
2023/06/06 06:27:43;;;;;;;10.27;5.03;;;14.80;99.90;;;;;;5000905;28;90182;-30
2023/06/06 06:30:10;;;;;;;11.82;5.07;;;15.00;99.90;;;;;;4999779;28;90239;-36
2023/06/06 06:32:37;;;;;;;8.68;5.00;;;15.10;99.90;;;;;;5000471;28;89834;-31
2023/06/06 06:35:04;;;;;;;13.98;6.82;;;15.30;99.90;;;;;;4999707;28;89468;-31
2023/06/06 06:37:30;;;;;;;8.52;4.88;;;15.30;99.90;;;;;;4999902;28;89669;-32
2023/06/06 06:39:56;;;;;;;6.93;4.35;;;15.40;99.90;;;;;;4999675;28;89612;-32
2023/06/06 06:42:22;;;;;;;9.02;5.15;;;15.40;99.90;;;;;;5000519;28;89633;-33
2023/06/06 06:44:49;;;;;;;7.47;5.35;;;15.60;99.90;;;;;;4999398;28;89798;-36
2023/06/06 06:47:14;;;;;;;10.73;5.25;;;15.70;99.90;;;;;;4998084;28;90172;-33
2023/06/06 06:49:41;;;;;;;11.70;5.53;;;15.90;99.90;;;;;;4997125;28;89529;-34
2023/06/06 06:52:07;;;;;;;13.63;5.15;;;15.90;99.90;;;;;;4998597;28;90109;-32
2023/06/06 06:54:44;;;;;;;6.38;5.05;;;15.70;99.90;;;;;;4998440;28;88702;-33
2023/06/06 06:57:09;;;;;;;6.95;4.88;;;15.70;99.90;;;;;;5008528;28;89960;-32
2023/06/06 06:59:35;;;;;;;15.77;6.93;;;15.90;99.90;;;;;;4999222;28;90514;-31
2023/06/06 07:02:02;;;;;;;9.35;4.93;;;16.00;99.90;;;;;;4998176;28;88994;-32
2023/06/06 07:04:28;;;;;;;11.73;5.07;;;16.10;99.90;;;;;;4998385;28;89441;-35
2023/06/06 07:06:54;;;;;;;9.57;5.93;;;16.10;99.90;;;;;;5015917;28;89049;-33
2023/06/06 07:09:20;;;;;;;11.25;5.00;;;16.00;99.90;;;;;;5026932;28;90160;-32
2023/06/06 07:11:46;;;;;;;12.85;5.13;;;16.50;99.90;;;;;;5016437;27;90179;-35
2023/06/06 07:14:11;;;;;;;9.40;4.43;;;16.40;99.90;;;;;;5017223;28;89603;-32
2023/06/06 07:16:37;;;;;;;7.78;5.53;;;16.50;99.90;;;;;;5016814;28;88826;-34
2023/06/06 07:19:03;;;;;;;9.43;5.97;;;16.40;99.90;;;;;;5017610;28;90070;-34
2023/06/06 07:21:28;;;;;;;6.53;5.80;;;16.50;99.90;;;;;;5018916;28;89649;-34
2023/06/06 07:23:55;;;;;;;16.50;6.22;;;16.50;99.90;;;;;;5028263;28;88855;-36
2023/06/06 07:26:21;;;;;;;11.13;5.15;;;16.70;99.90;;;;;;5016457;27;91125;-32
2023/06/06 07:28:47;;;;;;;8.15;6.63;;;16.80;99.90;;;;;;5016957;28;89807;-32
2023/06/06 07:31:13;;;;;;;11.43;7.90;;;16.90;99.90;;;;;;5016376;28;89641;-30
2023/06/06 07:33:39;;;;;;;7.72;5.63;;;16.80;99.90;;;;;;5016886;27;88386;-35
2023/06/06 07:36:05;;;;;;;11.82;7.20;;;17.10;99.90;;;;;;5015694;27;88612;-33
2023/06/06 07:38:31;;;;;;;10.55;7.32;;;17.20;99.90;;;;;;5015194;28;91341;-33
2023/06/06 07:40:56;;;;;;;11.10;7.78;;;17.00;99.90;;;;;;5014084;28;90037;-33
2023/06/06 07:43:22;;;;;;;13.65;7.55;;;17.20;99.90;;;;;;5014432;27;88799;-35
2023/06/06 07:45:48;;;;;;;15.38;8.55;;;17.20;99.90;;;;;;5014774;28;90544;-31
2023/06/06 07:48:13;;;;;;;13.82;8.05;;;17.50;99.90;;;;;;5015880;28;89544;-31
2023/06/06 07:50:39;;;;;;;14.00;9.65;;;17.70;99.90;;;;;;5014627;28;89969;-32
2023/06/06 07:53:05;;;;;;;12.88;8.65;;;17.40;99.90;;;;;;5016539;27;89043;-30
2023/06/06 07:55:31;;;;;;;17.17;9.52;;;17.70;99.90;;;;;;5014974;28;91106;-33
2023/06/06 07:57:58;;;;;;;17.88;9.02;;;17.90;99.90;;;;;;5019728;27;89827;-33
2023/06/06 08:00:23;;;;;;;15.23;10.30;;;18.10;99.90;;;;;;5016906;28;88362;-34
2023/06/06 08:02:49;;;;;;;16.90;10.45;;;18.10;99.90;;;;;;5003276;28;89149;-33
2023/06/06 08:05:17;;;;;;;13.50;10.80;;;18.10;99.90;;;;;;4995838;28;89569;-33
2023/06/06 08:07:42;;;;;;;13.38;8.93;;;18.10;99.90;;;;;;5007274;28;89531;-32
2023/06/06 08:10:08;;;;;;;15.57;9.52;;;18.10;99.90;;;;;;4998008;28;89324;-35
2023/06/06 08:12:35;;;;;;;13.43;8.73;;;18.40;99.90;;;;;;4997831;28;88882;-34
2023/06/06 08:15:01;;;;;;;16.52;10.35;;;18.40;99.90;;;;;;5007230;28;89967;-32
2023/06/06 08:17:27;;;;;;;19.27;11.48;;;18.60;99.90;;;;;;5002613;28;89671;-33
2023/06/06 08:19:52;;;;;;;13.77;10.18;;;18.40;99.90;;;;;;5003187;28;89277;-33
2023/06/06 08:22:18;;;;;;;14.38;10.20;;;18.80;99.90;;;;;;4995705;28;89063;-33
2023/06/06 08:24:44;;;;;;;12.25;9.02;;;18.50;99.90;;;;;;4996975;28;90266;-31
2023/06/06 08:27:10;;;;;;;12.65;7.63;;;18.70;99.90;;;;;;4997523;28;90320;-34
2023/06/06 08:29:36;;;;;;;9.05;6.93;;;18.50;99.90;;;;;;4996488;28;90619;-32
2023/06/06 08:32:03;;;;;;;11.07;6.63;;;18.60;99.90;;;;;;4997264;28;88826;-33
2023/06/06 08:34:28;;;;;;;9.02;7.45;;;19.00;99.90;;;;;;4998160;28;90256;-34
2023/06/06 08:36:54;;;;;;;12.38;7.97;;;18.90;99.90;;;;;;4993558;28;89935;-35
2023/06/06 08:39:21;;;;;;;14.80;8.18;;;18.60;99.90;;;;;;5014761;28;89580;-33
2023/06/06 08:41:51;;;;;;;8.43;6.72;;;18.80;99.90;;;;;;5016362;28;89369;-34
2023/06/06 08:44:24;;;;;;;9.57;7.43;;;18.90;99.90;;;;;;5015755;27;90142;-32
2023/06/06 08:46:52;;;;;;;15.65;6.68;;;19.30;99.90;;;;;;5016154;28;89822;-36
2023/06/06 08:49:19;;;;;;;13.60;6.78;;;19.30;99.90;;;;;;5009053;27;89851;-32
2023/06/06 08:51:47;;;;;;;18.15;7.60;;;19.20;99.90;;;;;;4997523;28;88107;-32
2023/06/06 08:54:13;;;;;;;14.07;7.03;;;19.30;99.90;;;;;;5008317;27;90744;-31
2023/06/06 08:56:42;;;;;;;8.55;7.20;;;19.50;99.90;;;;;;4998920;28;88264;-33
2023/06/06 08:59:10;;;;;;;9.38;7.55;;;19.60;99.90;;;;;;4998637;28;89593;-34
2023/06/06 09:01:37;;;;;;;11.80;7.60;;;19.70;99.90;;;;;;5000674;28;89341;-34
2023/06/06 09:04:04;;;;;;;9.07;8.18;;;19.50;99.90;;;;;;4999943;28;90861;-32
2023/06/06 09:06:32;;;;;;;9.90;7.30;;;19.40;99.90;;;;;;4999485;28;89391;-33
2023/06/06 09:08:57;;;;;;;12.23;7.32;;;19.50;99.90;;;;;;4999479;28;89630;-34
2023/06/06 09:11:23;;;;;;;8.77;6.25;;;19.40;99.90;;;;;;4999993;28;88174;-31
2023/06/06 09:13:49;;;;;;;10.43;6.30;;;19.50;99.90;;;;;;4999036;28;90174;-34
2023/06/06 09:16:15;;;;;;;6.63;5.93;;;19.70;99.90;;;;;;5014383;28;89275;-34
2023/06/06 09:18:41;;;;;;;8.90;6.78;;;19.80;99.90;;;;;;5010568;27;90806;-31
2023/06/06 09:21:07;;;;;;;12.10;8.25;;;19.70;99.90;;;;;;4998376;28;89390;-35
2023/06/06 09:23:33;;;;;;;7.93;6.65;;;19.70;99.90;;;;;;4998959;28;90778;-34
2023/06/06 09:26:00;;;;;;;9.65;7.53;;;20.20;99.90;;;;;;4999041;28;90630;-34
2023/06/06 09:28:41;;;;;;;9.15;7.38;;;20.10;99.90;;;;;;4999973;28;89141;-34
2023/06/06 09:31:29;;;;;;;10.73;7.20;;;20.20;99.90;;;;;;4995844;28;88892;-33
2023/06/06 09:33:57;;;;;;;11.15;6.70;;;20.30;99.90;;;;;;4999156;28;90241;-33
2023/06/06 09:36:27;;;;;;;11.00;5.90;;;20.30;99.90;;;;;;4999783;28;90356;-33
2023/06/06 09:38:55;;;;;;;8.68;6.30;;;20.40;99.90;;;;;;5000713;28;89985;-36
2023/06/06 09:41:25;;;;;;;;;;;20.40;99.90;;;;;;5000519;28;89141;-33
2023/06/06 09:43:51;;;;;;;8.45;6.93;;;20.50;99.90;;;;;;5000694;28;90485;-34
2023/06/06 09:46:19;;;;;;;8.85;6.95;;;20.40;99.90;;;;;;4999312;28;89568;-31
2023/06/06 09:49:05;;;;;;;9.43;7.07;;;20.20;99.90;;;;;;5000131;28;89554;-35
2023/06/06 09:51:31;;;;;;;9.15;6.65;;;20.50;99.90;;;;;;4999302;28;88958;-33
2023/06/06 09:54:00;;;;;;;12.25;7.22;;;20.50;99.90;;;;;;5000398;28;90481;-32
2023/06/06 09:56:29;;;;;;;9.68;7.88;;;20.50;99.90;;;;;;5000399;28;89704;-33
2023/06/06 09:58:56;;;;;;;11.40;6.28;;;20.70;99.90;;;;;;5000646;27;89190;-33
2023/06/06 10:01:28;;;;;;;10.27;7.93;;;20.60;99.90;;;;;;5000369;28;87768;-33
2023/06/06 10:03:57;;;;;;;11.07;7.40;;;20.40;99.90;;;;;;4987804;28;90108;-32
2023/06/06 10:06:26;;;;;;;13.88;6.53;;;20.30;99.90;;;;;;4997664;28;90599;-31
2023/06/06 10:08:56;;;;;;;8.25;6.75;;;20.40;99.90;;;;;;4999339;28;90158;-32
2023/06/06 10:11:22;;;;;;;13.73;6.93;;;20.40;99.90;;;;;;4999136;28;89215;-33
2023/06/06 10:13:51;;;;;;;10.90;5.90;;;20.50;99.90;;;;;;4998407;28;88912;-35
2023/06/06 10:16:19;;;;;;;8.20;6.63;;;20.50;99.90;;;;;;4998264;28;89815;-33
2023/06/06 10:18:46;;;;;;;7.03;5.32;;;20.60;99.90;;;;;;4998922;28;89384;-33
2023/06/06 10:21:15;;;;;;;18.58;7.22;;;20.70;99.90;;;;;;5012316;28;89417;-32
2023/06/06 10:23:42;;;;;;;13.52;6.43;;;20.70;99.90;;;;;;4998904;28;89567;-32
2023/06/06 10:26:16;;;;;;;10.50;6.28;;;20.60;99.90;;;;;;4997450;28;89825;-34
2023/06/06 10:28:53;;;;;;;10.77;7.53;;;20.70;99.90;;;;;;4999340;28;88696;-32
2023/06/06 10:31:31;;;;;;;15.57;7.32;;;20.90;99.90;;;;;;5003521;28;90239;-34
2023/06/06 10:34:00;;;;;;;8.43;7.03;;;20.90;99.90;;;;;;5004213;27;90408;-34
2023/06/06 10:36:36;;;;;;;9.77;6.70;;;20.70;99.90;;;;;;4997954;28;89950;-34
2023/06/06 10:39:23;;;;;;;7.97;6.13;;;20.90;99.90;;;;;;4999027;28;89645;-33
2023/06/06 10:41:50;;;;;;;8.15;7.38;;;21.20;99.90;;;;;;4999090;28;88441;-34
2023/06/06 10:44:19;;;;;;;10.90;8.13;;;20.80;99.90;;;;;;4997990;28;90447;-31
2023/06/06 10:46:48;;;;;;;6.68;6.00;;;20.60;99.90;;;;;;4998520;28;89253;-31
2023/06/06 10:49:13;;;;;;;6.75;5.63;;;20.80;99.90;;;;;;5005189;28;89504;-33
2023/06/06 10:51:39;;;;;;;14.20;8.05;;;20.90;99.90;;;;;;5018398;28;90384;-35
2023/06/06 10:54:27;;;;;;;10.18;7.18;;;21.10;99.90;;;;;;5004888;28;90240;-32
2023/06/06 10:56:55;;;;;;;9.13;7.05;;;20.90;99.90;;;;;;5017462;28;90903;-34
2023/06/06 10:59:28;;;;;;;13.23;7.33;;;20.60;99.90;;;;;;5016968;28;90965;-34
2023/06/06 11:01:55;;;;;;;8.68;7.05;;;20.50;99.90;;;;;;5017176;27;88309;-33
2023/06/06 11:04:22;;;;;;;10.80;7.05;;;20.60;99.90;;;;;;4988453;28;92174;-33
2023/06/06 11:06:52;;;;;;;10.60;7.37;;;20.70;99.90;;;;;;4997545;28;89752;-32
2023/06/06 11:09:32;;;;;;;10.60;6.72;;;20.70;99.90;;;;;;4997399;28;89407;-33
2023/06/06 11:12:13;;;;;;;8.13;6.18;;;20.80;99.90;;;;;;4996705;28;89434;-34
2023/06/06 11:15:04;;;;;;;8.40;6.25;;;20.90;99.90;;;;;;4998682;28;90322;-31
2023/06/06 11:17:45;;;;;;;8.63;5.75;;;20.70;99.90;;;;;;4998847;28;89266;-31
2023/06/06 11:20:21;;;;;;;7.47;5.78;;;21.00;99.90;;;;;;4984534;28;89454;-36
2023/06/06 11:23:03;;;;;;;15.27;7.10;;;20.90;99.90;;;;;;4998174;28;89353;-33
2023/06/06 11:25:35;;;;;;;15.07;6.82;;;21.10;99.90;;;;;;4995523;28;90317;-32
2023/06/06 11:28:01;;;;;;;10.95;7.15;;;21.10;99.90;;;;;;4997738;28;89344;-34
2023/06/06 11:30:35;;;;;;;9.38;6.38;;;21.00;99.90;;;;;;4996945;28;89995;-30
2023/06/06 11:33:06;;;;;;;9.35;6.80;;;21.10;99.90;;;;;;4997968;28;89573;-32
2023/06/06 11:35:33;;;;;;;14.30;7.78;;;21.20;99.90;;;;;;4996939;28;90016;-32
2023/06/06 11:37:59;;;;;;;11.48;7.07;;;21.10;99.90;;;;;;4995220;28;89906;-33
2023/06/06 11:40:25;;;;;;;14.20;7.63;;;21.00;99.90;;;;;;5002497;28;89733;-32
2023/06/06 11:42:51;;;;;;;13.98;7.43;;;20.90;99.90;;;;;;5008186;27;87898;-33
2023/06/06 11:45:19;;;;;;;13.15;7.30;;;20.90;99.90;;;;;;4996500;28;90963;-31
2023/06/06 11:47:45;;;;;;;8.37;7.10;;;21.10;99.90;;;;;;4995441;28;89338;-36
2023/06/06 11:50:11;;;;;;;13.88;6.50;;;20.90;99.90;;;;;;5014273;28;91212;-33
2023/06/06 11:52:50;;;;;;;10.98;8.02;;;21.00;99.90;;;;;;5017149;28;88838;-30
2023/06/06 11:55:16;;;;;;;8.88;7.97;;;21.00;99.90;;;;;;5002637;27;89524;-32
2023/06/06 11:57:43;;;;;;;11.02;7.40;;;20.90;99.90;;;;;;5017074;28;89799;-33
2023/06/06 12:00:17;;;;;;;9.52;6.70;;;20.70;99.90;;;;;;5015674;28;89576;-33
2023/06/06 12:02:52;;;;;;;14.23;8.73;;;20.60;99.90;;;;;;5003389;27;89756;-36
2023/06/06 12:05:24;;;;;;;12.40;7.60;;;20.80;99.90;;;;;;5000234;28;89919;-32
2023/06/06 12:07:51;;;;;;;13.40;7.72;;;20.70;99.90;;;;;;5017286;27;89757;-32
2023/06/06 12:10:25;;;;;;;12.57;7.03;;;20.90;99.90;;;;;;5015292;27;90259;-33
2023/06/06 12:12:50;;;;;;;16.23;7.72;;;20.70;99.90;;;;;;5015439;27;88630;-34
2023/06/06 12:15:16;;;;;;;11.13;6.70;;;20.80;99.90;;;;;;5016824;27;90272;-31
2023/06/06 12:17:42;;;;;;;11.80;7.25;;;20.80;99.90;;;;;;5002763;28;89706;-33
2023/06/06 12:20:08;;;;;;;8.23;7.32;;;20.90;99.90;;;;;;5003243;28;89616;-33
2023/06/06 12:22:37;;;;;;;10.77;7.85;;;21.00;99.90;;;;;;5001082;28;89873;-33
2023/06/06 12:25:04;;;;;;;10.75;6.70;;;21.00;99.90;;;;;;5001226;28;90178;-33
2023/06/06 12:27:36;;;;;;;8.57;7.03;;;21.00;99.90;;;;;;5000483;28;89605;-35
2023/06/06 12:30:03;;;;;;;10.30;6.88;;;21.10;99.90;;;;;;5001680;27;89396;-36
2023/06/06 12:32:30;;;;;;;12.65;7.63;;;21.10;99.90;;;;;;5005962;28;90322;-36
2023/06/06 12:35:03;;;;;;;9.98;7.35;;;20.90;99.90;;;;;;5004407;27;90865;-31
2023/06/06 12:37:39;;;;;;;8.73;6.35;;;21.10;99.90;;;;;;5005332;28;89317;-35
2023/06/06 12:40:33;;;;;;;10.10;7.53;;;21.00;99.90;;;;;;5000238;28;90495;-36
2023/06/06 12:43:03;;;;;;;14.05;8.38;;;20.80;99.90;;;;;;5000645;28;88122;-34
2023/06/06 12:45:29;;;;;;;8.60;6.88;;;20.80;99.90;;;;;;5016929;28;90472;-35
2023/06/06 12:47:56;;;;;;;10.15;7.38;;;20.70;99.90;;;;;;5008250;28;90052;-35